Portada
METAR-TAF:

METAR-TAF

Aeropuertos :

Burgos, España

Aeropuerto de Burgos

latitud: 42-22N, longitud: 003-38W, altitud: 894 m

Observación

El informe se hizo hace 19 minutos, a las 21:30 UTC
Viento 15 kt del sur
Temperatura 13°C
Humedad 33%
Presión 1012 hPa
Visibilidad 10 km o más
sin nubes por debajo de 1500 m y sin presencia de cumulonimbus.

METAR: LEBG 222130Z AUTO 19015KT CAVOK 13/M03 Q1012

Hora: 22:49 (21:49 UTC)

Pronóstico

El informe se hizo hace 4 horas y 49 minutos, a las 17:00 UTC
Pronóstico válido del 22 a las 18 UTC al 23 a las 03 UTC
Viento 12 kt del suroeste
Visibilidad 10 km o más
sin nubes por debajo de 1500 m y sin presencia de cumulonimbus.
Temporalmente
del 22 a las 18 UTC al 22 a las 24 UTC
Viento 15 kt del suroeste con ráfagas de 25 kt

TAF: LEBG 221700Z 2218/2303 22012KT CAVOK TEMPO 2218/2224 22015G25KT

Observaciones y pronósticos meteorológicos de más de 4000 aeropuertos (mensajes METAR y TAF).

Los puntos amarillos y rojos representan las estaciones disponibles.

Ponga el ratón en el punto deseado para ver el nombre de la estación.

Haga clic para ver las observaciones y los pronósticos meteorológicos.

Para cambiar el mapa : haga clic en los botones verdes con una cruz de color negro para hacer un zoom, en el botón verde con un guión para alejar o en las flechas verdes para mapas adyacentes.


METAR-TAF: